Main page
METAR-TAF:

METAR-TAF

Airports :

Minsk National Airport

Minsk, Belarus

latitude: 53-56N, longitude: 027-38E, elevation: 234 m

Current weather observation

The report was made 21 minutes ago, at 20:00 UTC
Wind 4 kt from the Northwest
Temperature 7°C
Humidity 76%
Pressure 1022 hPa
Visibility 10 km or more
Broken clouds at a height of 4900 ft

METAR: UMMS 202000Z 31002MPS 9999 BKN049 07/03 Q1022 R31/D NOSIG

Time: 23:21 (20:21 UTC)

Forecast

The report was made 3 hours and 11 minutes ago, at 17:10 UTC
Forecast valid from 20 at 18 UTC to 21 at 18 UTC
Wind 4 kt from variable directions
Visibility: 1200 m
Broken clouds at a height of 300 ft
patches of fog, mist
Temporary
from 20 at 18 UTC to 21 at 07 UTC
Visibility: 0300 m
at a height of 200 ft
fog
Becoming
from 21 at 07 UTC to 21 at 09 UTC
Visibility 10 km or more
Broken clouds at a height of 1000 ft

TAF: UMMS 201710Z 2018/2118 VRB02MPS 1200 BCFG BR BKN003 TX10/2112Z TNM01/2103Z TEMPO 2018/2107 0300 FG VV002 BECMG 2107/2109 9999 NSW BKN010

Weather observations and forecasts of more than 4000 airports (METAR and TAF reports).

The available stations are represented by yellow and red dots on the map.

Hover mouse over dot to see the name of the station.

Then click to see weather observations and forecasts.

To change the map : click on the green buttons with a black cross to zoom in, on the green button with a dash to zoom out, or on the green arrows for adjacent maps.


METAR-TAF: